sensor_id;sensor_type;location;lat;lon;timestamp;pressure;altitude;pressure_sealevel;temperature;humidity
74659;BME280;63186;51.204;6.536;2022-12-07T00:01:25;101319.38;;;3.00;97.97
74659;BME280;63186;51.204;6.536;2022-12-07T00:03:53;101315.16;;;2.92;98.05
74659;BME280;63186;51.204;6.536;2022-12-07T00:06:19;101319.84;;;2.80;98.18
74659;BME280;63186;51.204;6.536;2022-12-07T00:08:45;101315.06;;;2.70;98.71
74659;BME280;63186;51.204;6.536;2022-12-07T00:11:13;101318.28;;;2.67;98.82
74659;BME280;63186;51.204;6.536;2022-12-07T00:13:39;101327.25;;;2.68;99.13
74659;BME280;63186;51.204;6.536;2022-12-07T00:16:09;101330.03;;;2.73;99.12
74659;BME280;63186;51.204;6.536;2022-12-07T00:18:35;101319.84;;;2.80;99.72
74659;BME280;63186;51.204;6.536;2022-12-07T00:21:22;101328.75;;;2.92;99.41
74659;BME280;63186;51.204;6.536;2022-12-07T00:23:49;101322.41;;;3.04;99.13
74659;BME280;63186;51.204;6.536;2022-12-07T00:26:18;101331.91;;;3.18;98.96
74659;BME280;63186;51.204;6.536;2022-12-07T00:28:48;101320.28;;;3.22;99.07
74659;BME280;63186;51.204;6.536;2022-12-07T00:31:15;101318.13;;;3.24;98.85
74659;BME280;63186;51.204;6.536;2022-12-07T00:33:41;101319.03;;;3.30;98.84
74659;BME280;63186;51.204;6.536;2022-12-07T00:36:09;101322.91;;;3.34;98.84
74659;BME280;63186;51.204;6.536;2022-12-07T00:38:37;101314.22;;;3.37;98.57
74659;BME280;63186;51.204;6.536;2022-12-07T00:41:05;101319.50;;;3.44;98.57
74659;BME280;63186;51.204;6.536;2022-12-07T00:43:31;101313.81;;;3.45;98.60
74659;BME280;63186;51.204;6.536;2022-12-07T00:45:57;101316.88;;;3.49;98.46
74659;BME280;63186;51.204;6.536;2022-12-07T00:48:24;101313.06;;;3.50;98.36
74659;BME280;63186;51.204;6.536;2022-12-07T00:50:50;101314.97;;;3.49;98.55
74659;BME280;63186;51.204;6.536;2022-12-07T00:53:16;101306.78;;;3.49;98.43
74659;BME280;63186;51.204;6.536;2022-12-07T00:55:41;101305.72;;;3.50;98.57
74659;BME280;63186;51.204;6.536;2022-12-07T00:58:07;101308.19;;;3.52;98.44
74659;BME280;63186;51.204;6.536;2022-12-07T01:00:32;101299.44;;;3.50;98.34
74659;BME280;63186;51.204;6.536;2022-12-07T01:02:58;101292.09;;;3.50;98.44
74659;BME280;63186;51.204;6.536;2022-12-07T01:05:24;101293.69;;;3.46;98.31
74659;BME280;63186;51.204;6.536;2022-12-07T01:07:49;101296.91;;;3.43;98.34
74659;BME280;63186;51.204;6.536;2022-12-07T01:10:14;101293.28;;;3.38;98.51
74659;BME280;63186;51.204;6.536;2022-12-07T01:12:40;101299.31;;;3.40;98.62
74659;BME280;63186;51.204;6.536;2022-12-07T01:15:07;101300.19;;;3.45;98.52
74659;BME280;63186;51.204;6.536;2022-12-07T01:17:32;101299.38;;;3.45;98.37
74659;BME280;63186;51.204;6.536;2022-12-07T01:19:58;101298.81;;;3.43;98.33
74659;BME280;63186;51.204;6.536;2022-12-07T01:22:23;101304.78;;;3.40;98.49
74659;BME280;63186;51.204;6.536;2022-12-07T01:24:49;101311.59;;;3.42;98.59
74659;BME280;63186;51.204;6.536;2022-12-07T01:27:14;101305.06;;;3.43;98.55
74659;BME280;63186;51.204;6.536;2022-12-07T01:29:40;101314.66;;;3.46;98.31
74659;BME280;63186;51.204;6.536;2022-12-07T01:32:05;101303.78;;;3.46;98.27
74659;BME280;63186;51.204;6.536;2022-12-07T01:34:30;101302.34;;;3.43;98.34
74659;BME280;63186;51.204;6.536;2022-12-07T01:36:56;101295.78;;;3.39;98.25
74659;BME280;63186;51.204;6.536;2022-12-07T01:39:22;101302.91;;;3.45;98.47
74659;BME280;63186;51.204;6.536;2022-12-07T01:41:47;101304.81;;;3.45;98.33
74659;BME280;63186;51.204;6.536;2022-12-07T01:44:25;101305.41;;;3.47;98.45
74659;BME280;63186;51.204;6.536;2022-12-07T01:46:53;101299.16;;;3.46;98.64
74659;BME280;63186;51.204;6.536;2022-12-07T01:52:15;101282.41;;;3.38;98.37
74659;BME280;63186;51.204;6.536;2022-12-07T01:54:44;101298.72;;;3.38;98.50
74659;BME280;63186;51.204;6.536;2022-12-07T01:57:11;101294.63;;;3.35;98.62
74659;BME280;63186;51.204;6.536;2022-12-07T01:59:38;101295.69;;;3.34;98.42
74659;BME280;63186;51.204;6.536;2022-12-07T02:02:08;101282.56;;;3.31;98.51
74659;BME280;63186;51.204;6.536;2022-12-07T02:04:37;101295.97;;;3.33;97.86
74659;BME280;63186;51.204;6.536;2022-12-07T02:07:03;101293.47;;;3.31;98.43
74659;BME280;63186;51.204;6.536;2022-12-07T02:09:29;101295.97;;;3.33;98.31
74659;BME280;63186;51.204;6.536;2022-12-07T02:11:55;101288.53;;;3.28;98.55
74659;BME280;63186;51.204;6.536;2022-12-07T02:14:20;101292.06;;;3.29;98.43
74659;BME280;63186;51.204;6.536;2022-12-07T02:26:00;101282.75;;;3.24;98.57
74659;BME280;63186;51.204;6.536;2022-12-07T02:28:12;101292.00;;;3.23;98.69
74659;BME280;63186;51.204;6.536;2022-12-07T02:30:46;101291.69;;;3.20;98.79
74659;BME280;63186;51.204;6.536;2022-12-07T02:33:17;101285.91;;;3.16;98.90
74659;BME280;63186;51.204;6.536;2022-12-07T02:36:02;101288.06;;;3.14;98.86
74659;BME280;63186;51.204;6.536;2022-12-07T02:43:54;101289.88;;;3.09;98.88
74659;BME280;63186;51.204;6.536;2022-12-07T02:46:25;101286.91;;;3.10;99.00
74659;BME280;63186;51.204;6.536;2022-12-07T02:48:53;101287.22;;;3.14;99.39
74659;BME280;63186;51.204;6.536;2022-12-07T02:51:21;101295.13;;;3.15;98.75
74659;BME280;63186;51.204;6.536;2022-12-07T02:53:46;101286.41;;;3.13;98.71
74659;BME280;63186;51.204;6.536;2022-12-07T03:01:47;101286.25;;;3.20;98.81
74659;BME280;63186;51.204;6.536;2022-12-07T03:12:24;101291.84;;;3.13;98.25
74659;BME280;63186;51.204;6.536;2022-12-07T03:15:07;101281.38;;;3.05;98.60
74659;BME280;63186;51.204;6.536;2022-12-07T03:17:39;101288.13;;;3.03;98.81
74659;BME280;63186;51.204;6.536;2022-12-07T03:20:07;101280.16;;;2.96;98.75
74659;BME280;63186;51.204;6.536;2022-12-07T03:22:35;101289.63;;;2.93;99.05
74659;BME280;63186;51.204;6.536;2022-12-07T03:25:04;101292.00;;;2.90;99.20
74659;BME280;63186;51.204;6.536;2022-12-07T03:27:34;101282.94;;;2.84;98.87
74659;BME280;63186;51.204;6.536;2022-12-07T03:30:06;101290.03;;;2.85;99.12
74659;BME280;63186;51.204;6.536;2022-12-07T03:32:41;101280.94;;;2.80;99.09
74659;BME280;63186;51.204;6.536;2022-12-07T03:35:12;101284.00;;;2.83;99.33
74659;BME280;63186;51.204;6.536;2022-12-07T03:37:46;101284.31;;;2.87;99.11
74659;BME280;63186;51.204;6.536;2022-12-07T03:40:22;101278.16;;;2.91;99.20
74659;BME280;63186;51.204;6.536;2022-12-07T03:42:49;101286.06;;;2.93;99.11
74659;BME280;63186;51.204;6.536;2022-12-07T03:45:16;101280.63;;;2.93;99.36
74659;BME280;63186;51.204;6.536;2022-12-07T03:47:49;101275.69;;;2.90;99.07
74659;BME280;63186;51.204;6.536;2022-12-07T03:50:55;101274.13;;;2.94;99.09
74659;BME280;63186;51.204;6.536;2022-12-07T03:53:20;101276.03;;;2.93;98.90
74659;BME280;63186;51.204;6.536;2022-12-07T03:55:48;101270.72;;;2.87;98.76
74659;BME280;63186;51.204;6.536;2022-12-07T03:58:17;101271.91;;;2.74;98.58
74659;BME280;63186;51.204;6.536;2022-12-07T04:00:46;101283.94;;;2.61;98.79
74659;BME280;63186;51.204;6.536;2022-12-07T04:03:11;101282.66;;;2.52;99.25
74659;BME280;63186;51.204;6.536;2022-12-07T04:05:38;101275.97;;;2.43;99.46
74659;BME280;63186;51.204;6.536;2022-12-07T04:08:04;101280.00;;;2.40;99.52
74659;BME280;63186;51.204;6.536;2022-12-07T04:10:29;101274.72;;;2.34;99.55
74659;BME280;63186;51.204;6.536;2022-12-07T04:12:55;101279.56;;;2.32;99.82
74659;BME280;63186;51.204;6.536;2022-12-07T04:15:21;101281.72;;;2.30;99.80
74659;BME280;63186;51.204;6.536;2022-12-07T04:17:46;101284.19;;;2.31;99.98
74659;BME280;63186;51.204;6.536;2022-12-07T04:20:12;101286.75;;;2.38;100.00
74659;BME280;63186;51.204;6.536;2022-12-07T04:22:37;101289.31;;;2.44;100.00
74659;BME280;63186;51.204;6.536;2022-12-07T04:25:03;101285.63;;;2.51;100.00
74659;BME280;63186;51.204;6.536;2022-12-07T04:27:28;101285.72;;;2.56;100.00
74659;BME280;63186;51.204;6.536;2022-12-07T04:29:54;101286.38;;;2.63;99.81
74659;BME280;63186;51.204;6.536;2022-12-07T04:32:20;101285.88;;;2.66;99.59
74659;BME280;63186;51.204;6.536;2022-12-07T04:34:46;101286.97;;;2.65;99.58
74659;BME280;63186;51.204;6.536;2022-12-07T04:37:11;101277.16;;;2.64;99.32
74659;BME280;63186;51.204;6.536;2022-12-07T04:39:36;101275.50;;;2.63;99.34
74659;BME280;63186;51.204;6.536;2022-12-07T04:42:02;101279.16;;;2.68;99.18
74659;BME280;63186;51.204;6.536;2022-12-07T04:44:28;101277.00;;;2.70;99.29
74659;BME280;63186;51.204;6.536;2022-12-07T04:46:54;101278.75;;;2.77;99.07
74659;BME280;63186;51.204;6.536;2022-12-07T04:49:20;101281.47;;;2.77;98.91
74659;BME280;63186;51.204;6.536;2022-12-07T04:51:47;101269.66;;;2.71;98.67
74659;BME280;63186;51.204;6.536;2022-12-07T04:54:13;101282.59;;;2.64;98.86
74659;BME280;63186;51.204;6.536;2022-12-07T04:56:39;101276.50;;;2.57;99.03
74659;BME280;63186;51.204;6.536;2022-12-07T04:59:05;101279.53;;;2.60;99.31
74659;BME280;63186;51.204;6.536;2022-12-07T05:01:31;101275.00;;;2.66;99.20
74659;BME280;63186;51.204;6.536;2022-12-07T05:03:57;101265.78;;;2.67;99.29
74659;BME280;63186;51.204;6.536;2022-12-07T05:06:23;101265.56;;;2.68;99.04
74659;BME280;63186;51.204;6.536;2022-12-07T05:08:48;101264.91;;;2.61;98.83
74659;BME280;63186;51.204;6.536;2022-12-07T05:11:14;101269.50;;;2.61;98.78
74659;BME280;63186;51.204;6.536;2022-12-07T05:13:58;101274.09;;;2.60;99.09
74659;BME280;63186;51.204;6.536;2022-12-07T05:16:24;101270.81;;;2.58;98.82
74659;BME280;63186;51.204;6.536;2022-12-07T05:18:49;101279.22;;;2.57;98.77
74659;BME280;63186;51.204;6.536;2022-12-07T05:21:14;101279.47;;;2.55;98.86
74659;BME280;63186;51.204;6.536;2022-12-07T05:23:40;101273.44;;;2.53;98.93
74659;BME280;63186;51.204;6.536;2022-12-07T05:26:05;101279.47;;;2.55;98.68
74659;BME280;63186;51.204;6.536;2022-12-07T05:28:30;101283.81;;;2.56;98.88
74659;BME280;63186;51.204;6.536;2022-12-07T05:30:56;101282.25;;;2.60;98.84
74659;BME280;63186;51.204;6.536;2022-12-07T05:33:21;101283.66;;;2.63;98.65
74659;BME280;63186;51.204;6.536;2022-12-07T05:35:46;101282.34;;;2.65;98.52
74659;BME280;63186;51.204;6.536;2022-12-07T05:38:11;101277.72;;;2.66;98.62
74659;BME280;63186;51.204;6.536;2022-12-07T05:40:37;101265.78;;;2.67;98.65
74659;BME280;63186;51.204;6.536;2022-12-07T05:43:02;101263.06;;;2.67;98.95
74659;BME280;63186;51.204;6.536;2022-12-07T05:45:27;101267.94;;;2.65;98.44
74659;BME280;63186;51.204;6.536;2022-12-07T05:47:53;101261.94;;;2.63;98.65
74659;BME280;63186;51.204;6.536;2022-12-07T05:50:18;101260.75;;;2.59;98.38
74659;BME280;63186;51.204;6.536;2022-12-07T05:52:43;101267.53;;;2.56;98.54
74659;BME280;63186;51.204;6.536;2022-12-07T05:55:08;101259.03;;;2.53;98.61
74659;BME280;63186;51.204;6.536;2022-12-07T05:57:34;101265.22;;;2.48;98.79
74659;BME280;63186;51.204;6.536;2022-12-07T05:59:59;101256.31;;;2.53;99.11
74659;BME280;63186;51.204;6.536;2022-12-07T06:02:24;101253.94;;;2.56;99.04
74659;BME280;63186;51.204;6.536;2022-12-07T06:04:49;101265.13;;;2.60;99.14
74659;BME280;63186;51.204;6.536;2022-12-07T06:07:16;101250.78;;;2.64;98.96
74659;BME280;63186;51.204;6.536;2022-12-07T06:09:41;101256.06;;;2.71;98.79
74659;BME280;63186;51.204;6.536;2022-12-07T06:12:12;101250.16;;;2.74;98.81
74659;BME280;63186;51.204;6.536;2022-12-07T06:14:56;101264.16;;;2.83;98.56
74659;BME280;63186;51.204;6.536;2022-12-07T06:17:22;101260.63;;;2.82;98.56
74659;BME280;63186;51.204;6.536;2022-12-07T06:19:47;101258.16;;;2.81;98.50
74659;BME280;63186;51.204;6.536;2022-12-07T06:22:12;101264.41;;;2.81;98.74
74659;BME280;63186;51.204;6.536;2022-12-07T06:24:38;101264.41;;;2.81;98.63
74659;BME280;63186;51.204;6.536;2022-12-07T06:27:04;101268.19;;;2.80;98.45
74659;BME280;63186;51.204;6.536;2022-12-07T06:29:30;101272.78;;;2.80;98.40
74659;BME280;63186;51.204;6.536;2022-12-07T06:31:55;101262.50;;;2.82;98.42
74659;BME280;63186;51.204;6.536;2022-12-07T06:34:22;101272.06;;;2.84;98.42
74659;BME280;63186;51.204;6.536;2022-12-07T06:36:48;101264.97;;;2.83;98.47
74659;BME280;63186;51.204;6.536;2022-12-07T06:39:16;101267.19;;;2.86;98.49
74659;BME280;63186;51.204;6.536;2022-12-07T06:41:42;101254.59;;;2.80;98.38
74659;BME280;63186;51.204;6.536;2022-12-07T06:44:07;101263.09;;;2.84;98.49
74659;BME280;63186;51.204;6.536;2022-12-07T06:46:33;101273.13;;;2.83;98.23
74659;BME280;63186;51.204;6.536;2022-12-07T06:49:00;101265.81;;;2.84;98.50
74659;BME280;63186;51.204;6.536;2022-12-07T06:51:25;101266.88;;;2.83;98.36
74659;BME280;63186;51.204;6.536;2022-12-07T06:53:50;101263.34;;;2.82;98.41
74659;BME280;63186;51.204;6.536;2022-12-07T06:56:16;101266.31;;;2.81;98.11
74659;BME280;63186;51.204;6.536;2022-12-07T06:58:41;101264.88;;;2.78;98.21
74659;BME280;63186;51.204;6.536;2022-12-07T07:01:12;101271.41;;;2.77;98.19
74659;BME280;63186;51.204;6.536;2022-12-07T07:03:38;101272.06;;;2.67;97.89
74659;BME280;63186;51.204;6.536;2022-12-07T07:06:03;101278.66;;;2.55;98.08
74659;BME280;63186;51.204;6.536;2022-12-07T07:08:29;101274.25;;;2.37;98.14
74659;BME280;63186;51.204;6.536;2022-12-07T07:10:54;101267.69;;;2.21;98.13
74659;BME280;63186;51.204;6.536;2022-12-07T07:13:19;101266.06;;;2.08;98.22
74659;BME280;63186;51.204;6.536;2022-12-07T07:15:44;101267.44;;;1.94;98.41
74659;BME280;63186;51.204;6.536;2022-12-07T07:18:10;101268.88;;;1.85;98.63
74659;BME280;63186;51.204;6.536;2022-12-07T07:20:35;101274.44;;;1.78;98.87
74659;BME280;63186;51.204;6.536;2022-12-07T07:23:01;101270.09;;;1.77;99.33
74659;BME280;63186;51.204;6.536;2022-12-07T07:25:26;101276.47;;;1.83;99.50
74659;BME280;63186;51.204;6.536;2022-12-07T07:27:51;101277.97;;;1.90;99.29
74659;BME280;63186;51.204;6.536;2022-12-07T07:30:16;101282.56;;;1.90;99.19
74659;BME280;63186;51.204;6.536;2022-12-07T07:32:42;101280.69;;;1.90;99.18
74659;BME280;63186;51.204;6.536;2022-12-07T07:35:07;101290.34;;;1.86;99.17
74659;BME280;63186;51.204;6.536;2022-12-07T07:37:33;101285.78;;;1.75;99.51
74659;BME280;63186;51.204;6.536;2022-12-07T07:39:58;101279.66;;;1.68;99.36
74659;BME280;63186;51.204;6.536;2022-12-07T07:42:24;101288.75;;;1.62;99.27
74659;BME280;63186;51.204;6.536;2022-12-07T07:44:49;101282.50;;;1.50;99.30
74659;BME280;63186;51.204;6.536;2022-12-07T07:47:14;101283.56;;;1.49;99.48
74659;BME280;63186;51.204;6.536;2022-12-07T07:49:39;101287.59;;;1.46;99.43
74659;BME280;63186;51.204;6.536;2022-12-07T07:52:05;101289.50;;;1.57;100.00
74659;BME280;63186;51.204;6.536;2022-12-07T07:54:31;101284.06;;;1.57;99.95
74659;BME280;63186;51.204;6.536;2022-12-07T07:56:56;101279.91;;;1.55;99.81
74659;BME280;63186;51.204;6.536;2022-12-07T07:59:22;101275.22;;;1.50;99.79
74659;BME280;63186;51.204;6.536;2022-12-07T08:01:47;101291.25;;;1.52;99.98
74659;BME280;63186;51.204;6.536;2022-12-07T08:04:13;101293.97;;;1.52;99.79
74659;BME280;63186;51.204;6.536;2022-12-07T08:06:38;101295.50;;;1.59;100.00
74659;BME280;63186;51.204;6.536;2022-12-07T08:09:03;101289.34;;;1.64;100.00
74659;BME280;63186;51.204;6.536;2022-12-07T08:11:30;101291.44;;;1.74;100.00
74659;BME280;63186;51.204;6.536;2022-12-07T08:13:56;101292.00;;;1.87;100.00
74659;BME280;63186;51.204;6.536;2022-12-07T08:16:21;101296.94;;;2.02;100.00
74659;BME280;63186;51.204;6.536;2022-12-07T08:18:46;101299.91;;;2.29;100.00
74659;BME280;63186;51.204;6.536;2022-12-07T08:21:13;101308.44;;;2.66;99.82
74659;BME280;63186;51.204;6.536;2022-12-07T08:23:39;101304.28;;;2.92;99.09
74659;BME280;63186;51.204;6.536;2022-12-07T08:26:06;101300.41;;;3.05;98.14
74659;BME280;63186;51.204;6.536;2022-12-07T08:28:32;101303.78;;;3.12;98.61
74659;BME280;63186;51.204;6.536;2022-12-07T08:31:02;101301.31;;;3.11;98.02
74659;BME280;63186;51.204;6.536;2022-12-07T08:33:27;101308.19;;;3.13;98.19
74659;BME280;63186;51.204;6.536;2022-12-07T08:35:53;101306.59;;;3.17;97.69
74659;BME280;63186;51.204;6.536;2022-12-07T08:38:18;101312.38;;;3.21;97.89
74659;BME280;63186;51.204;6.536;2022-12-07T08:40:43;101307.00;;;3.26;97.68
74659;BME280;63186;51.204;6.536;2022-12-07T08:43:09;101301.31;;;3.28;97.53
74659;BME280;63186;51.204;6.536;2022-12-07T08:45:34;101306.66;;;3.22;97.50
74659;BME280;63186;51.204;6.536;2022-12-07T08:48:06;101308.56;;;3.22;97.51
74659;BME280;63186;51.204;6.536;2022-12-07T08:50:33;101305.59;;;3.23;97.49
74659;BME280;63186;51.204;6.536;2022-12-07T08:52:59;101308.41;;;3.29;97.34
74659;BME280;63186;51.204;6.536;2022-12-07T08:55:26;101301.78;;;3.41;97.65
74659;BME280;63186;51.204;6.536;2022-12-07T08:57:52;101309.97;;;3.63;96.89
74659;BME280;63186;51.204;6.536;2022-12-07T09:00:18;101303.09;;;3.77;96.40
74659;BME280;63186;51.204;6.536;2022-12-07T09:02:44;101304.94;;;3.94;96.13
74659;BME280;63186;51.204;6.536;2022-12-07T09:05:10;101301.81;;;5.20;94.16
74659;BME280;63186;51.204;6.536;2022-12-07T09:07:36;101300.78;;;5.68;89.15
74659;BME280;63186;51.204;6.536;2022-12-07T09:10:03;101307.44;;;5.03;90.37
74659;BME280;63186;51.204;6.536;2022-12-07T09:12:29;101296.22;;;4.41;91.49
74659;BME280;63186;51.204;6.536;2022-12-07T09:14:54;101293.94;;;4.05;93.13
74659;BME280;63186;51.204;6.536;2022-12-07T09:17:19;101299.16;;;3.90;93.52
74659;BME280;63186;51.204;6.536;2022-12-07T09:19:44;101306.31;;;3.96;94.30
74659;BME280;63186;51.204;6.536;2022-12-07T09:22:10;101309.19;;;4.06;93.97
74659;BME280;63186;51.204;6.536;2022-12-07T09:24:36;101307.84;;;4.31;93.01
74659;BME280;63186;51.204;6.536;2022-12-07T09:27:01;101303.16;;;4.53;92.54
74659;BME280;63186;51.204;6.536;2022-12-07T09:29:26;101299.88;;;4.51;91.21
74659;BME280;63186;51.204;6.536;2022-12-07T09:31:52;101305.13;;;4.31;91.27
74659;BME280;63186;51.204;6.536;2022-12-07T09:34:17;101308.28;;;4.23;91.88
74659;BME280;63186;51.204;6.536;2022-12-07T09:36:43;101305.75;;;4.16;92.30
74659;BME280;63186;51.204;6.536;2022-12-07T09:39:09;101314.16;;;5.23;90.96
74659;BME280;63186;51.204;6.536;2022-12-07T09:41:38;101316.22;;;7.03;84.15
74659;BME280;63186;51.204;6.536;2022-12-07T09:44:07;101307.66;;;7.71;80.72
74659;BME280;63186;51.204;6.536;2022-12-07T09:46:36;101316.50;;;6.92;81.24
74659;BME280;63186;51.204;6.536;2022-12-07T09:49:03;101318.16;;;7.13;80.59
74659;BME280;63186;51.204;6.536;2022-12-07T09:51:29;101312.13;;;7.11;80.50
74659;BME280;63186;51.204;6.536;2022-12-07T09:53:57;101316.84;;;6.12;83.12
74659;BME280;63186;51.204;6.536;2022-12-07T09:56:24;101313.50;;;5.53;86.43
74659;BME280;63186;51.204;6.536;2022-12-07T09:58:53;101308.31;;;5.09;88.13
74659;BME280;63186;51.204;6.536;2022-12-07T10:01:22;101306.47;;;4.87;89.49
74659;BME280;63186;51.204;6.536;2022-12-07T10:04:09;101301.19;;;4.76;90.21
74659;BME280;63186;51.204;6.536;2022-12-07T10:06:35;101299.25;;;4.71;91.03
74659;BME280;63186;51.204;6.536;2022-12-07T10:09:00;101292.44;;;4.74;90.74
74659;BME280;63186;51.204;6.536;2022-12-07T10:11:26;101289.22;;;4.77;90.31
74659;BME280;63186;51.204;6.536;2022-12-07T10:13:52;101297.53;;;4.92;89.90
74659;BME280;63186;51.204;6.536;2022-12-07T10:18:50;101280.59;;;4.90;90.09
74659;BME280;63186;51.204;6.536;2022-12-07T10:21:24;101279.72;;;4.84;89.69
74659;BME280;63186;51.204;6.536;2022-12-07T10:26:50;101285.22;;;4.89;90.11
74659;BME280;63186;51.204;6.536;2022-12-07T10:29:20;101277.13;;;5.00;90.38
74659;BME280;63186;51.204;6.536;2022-12-07T10:34:30;101283.47;;;5.53;88.42
74659;BME280;63186;51.204;6.536;2022-12-07T10:42:16;101272.25;;;5.07;88.78
74659;BME280;63186;51.204;6.536;2022-12-07T10:44:41;101264.56;;;4.99;89.34
74659;BME280;63186;51.204;6.536;2022-12-07T10:47:19;101262.66;;;4.99;89.29
74659;BME280;63186;51.204;6.536;2022-12-07T10:52:43;101256.28;;;5.26;87.27
74659;BME280;63186;51.204;6.536;2022-12-07T11:01:08;101252.09;;;4.76;88.25
74659;BME280;63186;51.204;6.536;2022-12-07T11:06:18;101250.22;;;4.49;89.78
74659;BME280;63186;51.204;6.536;2022-12-07T11:08:51;101242.03;;;4.49;90.52
74659;BME280;63186;51.204;6.536;2022-12-07T11:11:33;101247.28;;;4.56;90.87
74659;BME280;63186;51.204;6.536;2022-12-07T11:19:17;101231.78;;;4.94;90.00
74659;BME280;63186;51.204;6.536;2022-12-07T11:25:10;101223.59;;;4.94;89.20
74659;BME280;63186;51.204;6.536;2022-12-07T11:30:02;101224.25;;;4.74;89.76
74659;BME280;63186;51.204;6.536;2022-12-07T11:38:11;101215.31;;;5.21;89.44
74659;BME280;63186;51.204;6.536;2022-12-07T11:40:38;101206.13;;;5.37;88.65
74659;BME280;63186;51.204;6.536;2022-12-07T11:43:26;101214.16;;;5.64;87.10
74659;BME280;63186;51.204;6.536;2022-12-07T11:46:04;101204.94;;;5.85;86.82
74659;BME280;63186;51.204;6.536;2022-12-07T11:51:37;101206.16;;;6.25;85.82
74659;BME280;63186;51.204;6.536;2022-12-07T11:54:26;101194.44;;;6.30;84.38
74659;BME280;63186;51.204;6.536;2022-12-07T11:56:56;101194.97;;;6.32;85.14
74659;BME280;63186;51.204;6.536;2022-12-07T12:02:23;101194.69;;;6.23;84.20
74659;BME280;63186;51.204;6.536;2022-12-07T12:05:19;101191.94;;;6.13;84.93
74659;BME280;63186;51.204;6.536;2022-12-07T12:08:00;101187.00;;;6.05;85.81
74659;BME280;63186;51.204;6.536;2022-12-07T12:13:09;101184.31;;;6.15;84.58
74659;BME280;63186;51.204;6.536;2022-12-07T12:15:58;101181.56;;;6.15;82.81
74659;BME280;63186;51.204;6.536;2022-12-07T12:21:29;101184.03;;;6.21;83.97
74659;BME280;63186;51.204;6.536;2022-12-07T12:23:59;101182.13;;;6.22;84.21
74659;BME280;63186;51.204;6.536;2022-12-07T12:26:28;101178.84;;;6.15;82.91
74659;BME280;63186;51.204;6.536;2022-12-07T12:29:00;101177.47;;;6.07;82.67
74659;BME280;63186;51.204;6.536;2022-12-07T12:33:53;101163.47;;;5.98;84.22
74659;BME280;63186;51.204;6.536;2022-12-07T12:44:00;101163.41;;;5.78;83.33
74659;BME280;63186;51.204;6.536;2022-12-07T12:48:56;101159.84;;;5.78;84.12
74659;BME280;63186;51.204;6.536;2022-12-07T12:51:40;101162.03;;;5.70;83.47
74659;BME280;63186;51.204;6.536;2022-12-07T12:54:15;101156.25;;;5.67;83.72
74659;BME280;63186;51.204;6.536;2022-12-07T12:59:33;101151.59;;;5.57;84.47
74659;BME280;63186;51.204;6.536;2022-12-07T13:10:36;101149.97;;;5.66;83.52
74659;BME280;63186;51.204;6.536;2022-12-07T13:26:09;101133.06;;;5.64;84.03
74659;BME280;63186;51.204;6.536;2022-12-07T13:28:44;101125.94;;;5.58;82.68
74659;BME280;63186;51.204;6.536;2022-12-07T13:31:11;101122.13;;;5.54;83.64
74659;BME280;63186;51.204;6.536;2022-12-07T13:33:38;101116.91;;;5.53;84.27
74659;BME280;63186;51.204;6.536;2022-12-07T13:36:04;101122.91;;;5.50;83.82
74659;BME280;63186;51.204;6.536;2022-12-07T13:38:35;101118.25;;;5.50;83.31
74659;BME280;63186;51.204;6.536;2022-12-07T13:41:15;101121.28;;;5.49;83.01
74659;BME280;63186;51.204;6.536;2022-12-07T13:46:10;101116.63;;;5.49;84.11
74659;BME280;63186;51.204;6.536;2022-12-07T13:48:45;101109.22;;;5.44;83.95
74659;BME280;63186;51.204;6.536;2022-12-07T13:51:18;101108.41;;;5.44;84.69
74659;BME280;63186;51.204;6.536;2022-12-07T13:53:53;101102.13;;;5.43;85.21
74659;BME280;63186;51.204;6.536;2022-12-07T13:56:21;101099.38;;;5.38;85.36
74659;BME280;63186;51.204;6.536;2022-12-07T13:58:47;101094.72;;;5.34;85.61
74659;BME280;63186;51.204;6.536;2022-12-07T14:01:13;101100.19;;;5.39;85.43
74659;BME280;63186;51.204;6.536;2022-12-07T14:03:39;101101.31;;;5.43;85.68
74659;BME280;63186;51.204;6.536;2022-12-07T14:08:30;101092.00;;;5.39;85.35
74659;BME280;63186;51.204;6.536;2022-12-07T14:10:57;101096.38;;;5.35;85.88
74659;BME280;63186;51.204;6.536;2022-12-07T14:13:35;101089.22;;;5.24;85.43
74659;BME280;63186;51.204;6.536;2022-12-07T14:16:02;101086.44;;;5.13;86.47
74659;BME280;63186;51.204;6.536;2022-12-07T14:18:34;101078.78;;;5.05;86.68
74659;BME280;63186;51.204;6.536;2022-12-07T14:23:36;101078.66;;;4.80;87.11
74659;BME280;63186;51.204;6.536;2022-12-07T14:26:12;101079.13;;;4.67;87.31
74659;BME280;63186;51.204;6.536;2022-12-07T14:28:39;101071.72;;;4.57;87.39
74659;BME280;63186;51.204;6.536;2022-12-07T14:31:21;101066.50;;;4.50;88.11
74659;BME280;63186;51.204;6.536;2022-12-07T14:33:48;101072.97;;;4.39;88.32
74659;BME280;63186;51.204;6.536;2022-12-07T14:36:14;101066.06;;;4.26;88.84
74659;BME280;63186;51.204;6.536;2022-12-07T14:38:40;101070.63;;;4.21;89.05
74659;BME280;63186;51.204;6.536;2022-12-07T14:41:12;101058.31;;;4.13;89.27
74659;BME280;63186;51.204;6.536;2022-12-07T14:43:56;101062.38;;;4.11;89.32
74659;BME280;63186;51.204;6.536;2022-12-07T14:46:23;101058.06;;;4.15;89.19
74659;BME280;63186;51.204;6.536;2022-12-07T14:48:49;101059.13;;;4.14;89.53
74659;BME280;63186;51.204;6.536;2022-12-07T14:51:14;101059.47;;;4.22;89.68
74659;BME280;63186;51.204;6.536;2022-12-07T14:53:46;101065.28;;;4.31;89.27
74659;BME280;63186;51.204;6.536;2022-12-07T14:56:13;101050.59;;;4.37;89.16
74659;BME280;63186;51.204;6.536;2022-12-07T14:58:39;101043.47;;;4.36;89.16
74659;BME280;63186;51.204;6.536;2022-12-07T15:01:04;101052.97;;;4.28;89.37
74659;BME280;63186;51.204;6.536;2022-12-07T15:03:30;101044.47;;;4.20;89.61
74659;BME280;63186;51.204;6.536;2022-12-07T15:05:55;101034.78;;;4.02;89.84
74659;BME280;63186;51.204;6.536;2022-12-07T15:08:21;101037.13;;;3.88;90.28
74659;BME280;63186;51.204;6.536;2022-12-07T15:10:46;101041.16;;;3.80;90.72
74659;BME280;63186;51.204;6.536;2022-12-07T15:13:11;101038.34;;;3.70;90.81